Terminal Aerodrome Forecast
Issued by NWS Memphis, TN

Home | Current Version | Previous Version | Text Only | Print | Product List | Glossary On
Versions: 1 2 3 4 5 6 7 8 9 10 11 12 13 14 15 16 17 18 19 20 21
000
FTUS44 KMEG 272326
TAFMKL
TAF
KMKL 272326Z 2800/2824 16004KT P6SM SCT050 BKN250
     FM280200 VRB03KT 6SM BR FEW050 SCT250
     FM280800 00000KT 2SM BR BKN004
      TEMPO 2810/2813 1/2SM FG VV002
     FM281500 16005KT P6SM BKN050=

USA.gov is the U.S. government's official web portal to all federal, state and local government web resources and services.